Saint Lawrence, South Dakota
Current Conditions -  °F | °C
As of 12:55 PM on Thursday 23 Oct 2014 (Local Time) from KHON Reporting Station
Clear Clear  
Wind Chill: 64°   Ceiling: Unl
Heat Index: 64°   Visibility: 10mi
Dew Point: 50°   Wind: 7mph
Humidity: 60%   Direction: NA
Pressure: 29.97"   Gusts: NA
Location:  44.52°N, 98.94°W
Report Text: KHON 231755Z AUTO VRB06KT 10SM CLR 18/10 A2997 RMK AO2 SLP150 T01780100 10178 20011 58011
Loading
Personal Weather Stations






























Interactive Weather Map
Tropical Storm Tracking
New forecast layout! Learn more

10-Day Weather Forecast

Advertisements
Track Severe Weather on mobile